Time;durP1;ratioP1;P1;durP2;ratioP2;P2;SDS_P1;SDS_P2;PMS_P1;PMS_P2;Temp;Humidity;BMP_temperature;BMP_pressure;BME280_temperature;BME280_humidity;BME280_pressure;Samples;Min_cycle;Max_cycle;Signal;HPM_P1;HPM_P2
2021/03/03 00:01:30;;;;;;;32.92;17.90;;;;;;;-0.18;100.00;97759.66;5065256;28;20067;-47
2021/03/03 00:03:58;;;;;;;28.33;17.33;;;;;;;-0.17;100.00;97756.16;5028449;28;20048;-50
2021/03/03 00:06:25;;;;;;;28.52;17.58;;;;;;;-0.10;100.00;97755.94;5066437;28;20153;-50
2021/03/03 00:08:51;;;;;;;29.88;18.38;;;;;;;-0.08;100.00;97758.47;5035082;28;20388;-48
2021/03/03 00:11:18;;;;;;;32.00;18.42;;;;;;;-0.09;100.00;97754.19;5063867;28;20059;-47
2021/03/03 00:13:45;;;;;;;32.05;19.60;;;;;;;-0.12;100.00;97754.28;5024556;28;20562;-52
2021/03/03 00:16:11;;;;;;;32.78;18.20;;;;;;;-0.15;100.00;97746.59;5067930;27;20068;-48
2021/03/03 00:18:39;;;;;;;33.08;18.85;;;;;;;-0.12;100.00;97756.88;5023904;28;20048;-48
2021/03/03 00:21:06;;;;;;;29.90;19.15;;;;;;;-0.15;100.00;97765.59;5066259;28;20082;-49
2021/03/03 00:23:33;;;;;;;28.95;19.20;;;;;;;-0.21;100.00;97758.00;5032915;28;20396;-52
2021/03/03 00:26:00;;;;;;;31.85;18.77;;;;;;;-0.16;100.00;97756.13;5064327;28;20478;-52
2021/03/03 00:28:27;;;;;;;32.03;19.38;;;;;;;-0.14;100.00;97761.25;5033350;28;20109;-50
2021/03/03 00:30:54;;;;;;;30.88;18.80;;;;;;;-0.18;100.00;97762.25;5063502;27;20523;-49
2021/03/03 00:33:21;;;;;;;27.63;18.75;;;;;;;-0.24;100.00;97760.72;5022776;28;20116;-52
2021/03/03 00:35:48;;;;;;;29.65;17.73;;;;;;;-0.26;100.00;97755.56;5056892;28;20048;-54
2021/03/03 00:38:16;;;;;;;29.98;18.27;;;;;;;-0.27;100.00;97758.22;5027981;28;20075;-51
2021/03/03 00:40:43;;;;;;;31.73;18.67;;;;;;;-0.30;100.00;97758.28;5051517;28;20132;-50
2021/03/03 00:43:10;;;;;;;28.52;18.90;;;;;;;-0.26;100.00;97749.53;5055253;28;20044;-52
2021/03/03 00:45:38;;;;;;;32.50;20.30;;;;;;;-0.33;100.00;97751.44;5043166;28;20692;-48
2021/03/03 00:48:06;;;;;;;36.65;19.95;;;;;;;-0.39;100.00;97754.22;5064304;28;20052;-51
2021/03/03 00:50:32;;;;;;;30.30;19.52;;;;;;;-0.38;100.00;97748.16;5039041;28;20137;-55
2021/03/03 00:53:00;;;;;;;31.90;20.92;;;;;;;-0.43;100.00;97744.84;5059700;28;20068;-54
2021/03/03 00:55:27;;;;;;;32.67;19.30;;;;;;;-0.36;100.00;97741.19;5016932;28;20044;-53
2021/03/03 00:57:54;;;;;;;33.50;19.33;;;;;;;-0.43;100.00;97736.22;5065151;28;20121;-51
2021/03/03 01:00:32;;;;;;;35.05;19.17;;;;;;;-0.52;100.00;97740.81;5022366;28;20102;-53
2021/03/03 01:02:59;;;;;;;34.70;18.85;;;;;;;-0.56;100.00;97735.72;5063680;28;20037;-49
2021/03/03 01:05:26;;;;;;;32.58;18.30;;;;;;;-0.60;100.00;97727.19;5035868;28;20063;-49
2021/03/03 01:07:53;;;;;;;27.33;17.70;;;;;;;-0.61;100.00;97727.25;5055198;28;20566;-50
2021/03/03 01:10:21;;;;;;;27.98;18.90;;;;;;;-0.56;100.00;97722.78;5035583;28;20036;-50
2021/03/03 01:12:48;;;;;;;30.90;17.45;;;;;;;-0.54;100.00;97723.59;5062816;27;20519;-47
2021/03/03 01:15:15;;;;;;;32.55;18.27;;;;;;;-0.55;100.00;97719.28;5030836;28;20075;-49
2021/03/03 01:17:42;;;;;;;27.58;17.70;;;;;;;-0.53;100.00;97727.88;5066005;28;20126;-51
2021/03/03 01:20:10;;;;;;;25.17;16.88;;;;;;;-0.49;100.00;97725.13;5026699;27;20131;-52
2021/03/03 01:22:37;;;;;;;25.58;16.85;;;;;;;-0.61;100.00;97725.50;5065798;28;20036;-50
2021/03/03 01:25:04;;;;;;;32.40;17.95;;;;;;;-0.81;100.00;97727.84;5031643;28;20041;-54
2021/03/03 01:27:32;;;;;;;30.80;18.92;;;;;;;-1.09;100.00;97730.34;5071689;28;20504;-54
2021/03/03 01:29:59;;;;;;;26.00;18.35;;;;;;;-1.03;100.00;97725.00;5057213;28;20428;-51
2021/03/03 01:32:25;;;;;;;38.70;19.23;;;;;;;-1.02;100.00;97721.53;5048674;28;20099;-56
2021/03/03 01:34:52;;;;;;;33.90;18.48;;;;;;;-1.02;100.00;97713.75;5063420;28;20134;-53
2021/03/03 01:37:19;;;;;;;32.20;17.75;;;;;;;-0.99;100.00;97711.09;5017132;28;20143;-50
2021/03/03 01:39:46;;;;;;;33.00;17.80;;;;;;;-0.97;100.00;97712.72;5061231;28;20145;-49
2021/03/03 01:42:13;;;;;;;26.45;17.80;;;;;;;-0.99;100.00;97717.09;5026922;28;20511;-48
2021/03/03 01:44:40;;;;;;;26.30;17.50;;;;;;;-1.07;100.00;97711.25;5067840;28;20041;-53
2021/03/03 01:47:07;;;;;;;27.63;17.60;;;;;;;-1.09;100.00;97709.63;5031852;28;20471;-50
2021/03/03 01:49:34;;;;;;;27.80;18.95;;;;;;;-1.05;100.00;97706.06;5062726;28;20044;-51
2021/03/03 01:52:02;;;;;;;30.23;17.63;;;;;;;-1.02;100.00;97708.56;5033050;28;20454;-52
2021/03/03 01:54:28;;;;;;;30.83;18.30;;;;;;;-1.00;100.00;97706.78;5062529;27;20040;-50
2021/03/03 01:56:56;;;;;;;26.90;18.15;;;;;;;-0.97;100.00;97701.50;5029542;28;20413;-49
2021/03/03 01:59:23;;;;;;;28.35;18.05;;;;;;;-0.97;100.00;97706.69;5061467;28;20122;-50
2021/03/03 02:01:50;;;;;;;26.73;17.77;;;;;;;-1.06;100.00;97706.97;5024505;28;20036;-46
2021/03/03 02:04:17;;;;;;;27.45;17.35;;;;;;;-0.96;100.00;97700.63;5065330;27;20049;-50
2021/03/03 02:06:48;;;;;;;31.90;17.65;;;;;;;-0.94;100.00;97695.41;5034368;28;20172;-49
2021/03/03 02:09:18;;;;;;;23.50;16.70;;;;;;;-1.06;100.00;97696.59;5074246;28;20040;-54
2021/03/03 02:11:48;;;;;;;27.60;18.10;;;;;;;-1.12;100.00;97697.63;5030027;28;20068;-55
2021/03/03 02:14:19;;;;;;;30.25;18.00;;;;;;;-1.15;100.00;97695.09;5063463;28;20138;-51
2021/03/03 02:16:46;;;;;;;29.67;17.55;;;;;;;-1.06;100.00;97701.78;5069513;27;20040;-52
2021/03/03 02:19:20;;;;;;;25.88;16.50;;;;;;;-1.24;100.00;97704.00;5038020;28;20036;-48
2021/03/03 02:21:52;;;;;;;23.35;17.00;;;;;;;-1.67;100.00;97707.69;5068295;27;20098;-49
2021/03/03 02:24:21;;;;;;;27.27;16.50;;;;;;;-1.85;100.00;97702.16;5030005;28;20032;-52
2021/03/03 02:26:49;;;;;;;23.25;16.05;;;;;;;-1.74;100.00;97700.13;5070475;28;20048;-52
2021/03/03 02:29:20;;;;;;;25.38;16.92;;;;;;;-1.62;100.00;97696.38;5050990;27;20040;-54
2021/03/03 02:31:50;;;;;;;25.33;17.50;;;;;;;-1.65;100.00;97692.16;5065715;28;20105;-53
2021/03/03 02:34:20;;;;;;;25.75;16.40;;;;;;;-1.72;100.00;97686.28;5040821;28;20037;-51
2021/03/03 02:36:47;;;;;;;28.42;16.98;;;;;;;-1.62;100.00;97693.78;5059450;27;20584;-53
2021/03/03 02:39:15;;;;;;;31.35;16.90;;;;;;;-1.59;100.00;97698.88;5031557;28;20070;-49
2021/03/03 02:41:43;;;;;;;30.13;17.02;;;;;;;-1.53;100.00;97693.56;5070185;28;20033;-50
2021/03/03 02:44:12;;;;;;;27.48;17.80;;;;;;;-1.63;100.00;97703.28;5025977;28;20045;-53
2021/03/03 02:46:42;;;;;;;19.00;14.60;;;;;;;-1.83;100.00;97708.97;5071558;27;20093;-51
2021/03/03 02:49:12;;;;;;;20.67;15.85;;;;;;;-1.92;100.00;97696.28;5030678;28;20044;-47
2021/03/03 02:51:39;;;;;;;18.70;14.98;;;;;;;-1.83;100.00;97693.44;5064375;28;20036;-50
2021/03/03 02:54:10;;;;;;;19.85;14.90;;;;;;;-1.87;100.00;97694.41;5038717;27;20040;-53
2021/03/03 02:56:37;;;;;;;21.42;15.23;;;;;;;-1.97;100.00;97698.09;5067191;28;20094;-49
2021/03/03 02:59:10;;;;;;;19.35;15.57;;;;;;;-2.00;100.00;97700.75;5022885;28;20499;-53
2021/03/03 03:01:58;;;;;;;18.90;14.35;;;;;;;-1.88;100.00;97700.47;5065091;28;20103;-52
2021/03/03 03:04:28;;;;;;;18.80;14.50;;;;;;;-1.89;100.00;97696.22;5024733;28;20131;-52
2021/03/03 03:06:56;;;;;;;25.27;16.15;;;;;;;-1.75;100.00;97688.94;5072095;28;20045;-52
2021/03/03 03:09:24;;;;;;;26.52;17.38;;;;;;;-1.71;100.00;97695.72;5032557;28;20072;-53
2021/03/03 03:11:52;;;;;;;25.25;17.15;;;;;;;-1.65;100.00;97696.44;5068061;28;20047;-49
2021/03/03 03:14:21;;;;;;;26.55;17.00;;;;;;;-1.63;100.00;97694.69;5033331;27;20040;-52
2021/03/03 03:16:48;;;;;;;27.63;18.13;;;;;;;-1.74;100.00;97697.56;5066607;28;20036;-49
2021/03/03 03:19:20;;;;;;;34.65;20.67;;;;;;;-1.62;100.00;97694.63;5040805;27;20029;-53
2021/03/03 03:21:48;;;;;;;32.25;19.90;;;;;;;-1.64;100.00;97695.59;5066929;28;20097;-54
2021/03/03 03:24:18;;;;;;;34.30;21.17;;;;;;;-1.65;100.00;97693.88;5068519;28;20028;-50
2021/03/03 03:26:46;;;;;;;33.13;20.90;;;;;;;-1.61;100.00;97698.09;5021776;28;20059;-51
2021/03/03 03:29:12;;;;;;;31.92;18.95;;;;;;;-1.71;100.00;97690.56;5060480;28;20541;-53
2021/03/03 03:31:40;;;;;;;34.33;19.02;;;;;;;-1.63;100.00;97684.34;5031032;28;20036;-48
2021/03/03 03:34:08;;;;;;;34.53;20.75;;;;;;;-1.60;100.00;97694.63;5064254;28;20035;-50
2021/03/03 03:36:37;;;;;;;30.27;20.38;;;;;;;-1.63;100.00;97699.84;5030189;28;20488;-51
2021/03/03 03:39:04;;;;;;;33.33;20.70;;;;;;;-1.67;100.00;97705.09;5065199;27;20049;-54
2021/03/03 03:41:32;;;;;;;34.42;20.33;;;;;;;-1.67;100.00;97705.09;5024997;28;20041;-54
2021/03/03 03:44:00;;;;;;;33.45;19.02;;;;;;;-1.71;100.00;97687.97;5065714;27;20047;-50
2021/03/03 03:46:27;;;;;;;31.55;19.73;;;;;;;-1.70;100.00;97689.66;5028219;28;20082;-51
2021/03/03 03:48:55;;;;;;;28.70;19.58;;;;;;;-1.58;100.00;97693.69;5068560;28;20102;-48
2021/03/03 03:51:22;;;;;;;35.45;19.77;;;;;;;-1.62;100.00;97693.78;5030183;28;20044;-51
2021/03/03 03:53:50;;;;;;;33.13;19.85;;;;;;;-1.72;100.00;97693.16;5070329;28;20125;-50
2021/03/03 03:56:17;;;;;;;34.22;19.77;;;;;;;-1.78;100.00;97699.38;5038554;28;20560;-54
2021/03/03 03:58:44;;;;;;;25.45;18.40;;;;;;;-1.89;100.00;97698.78;5068230;28;20432;-51
2021/03/03 04:01:10;;;;;;;32.65;20.15;;;;;;;-1.92;100.00;97697.13;5027353;28;20101;-52
2021/03/03 04:03:38;;;;;;;31.98;19.13;;;;;;;-1.92;100.00;97691.94;5063813;28;20060;-53
2021/03/03 04:06:06;;;;;;;26.10;17.50;;;;;;;-1.91;100.00;97696.22;5037571;28;20098;-54
2021/03/03 04:08:33;;;;;;;27.17;18.48;;;;;;;-1.92;100.00;97704.03;5062484;28;20040;-51
2021/03/03 04:11:00;;;;;;;27.67;17.58;;;;;;;-1.78;100.00;97719.22;5066819;28;20041;-48
2021/03/03 04:13:27;;;;;;;27.38;17.92;;;;;;;-2.01;100.00;97719.75;5041060;28;20028;-51
2021/03/03 04:15:54;;;;;;;31.42;18.10;;;;;;;-2.39;100.00;97724.06;5063782;28;20044;-49
2021/03/03 04:18:22;;;;;;;29.95;18.13;;;;;;;-2.38;100.00;97712.84;5041135;28;20036;-52
2021/03/03 04:20:48;;;;;;;29.70;17.63;;;;;;;-2.47;100.00;97705.31;5064554;28;20073;-50
2021/03/03 04:23:15;;;;;;;31.23;18.23;;;;;;;-2.41;100.00;97705.16;5025354;28;20040;-50
2021/03/03 04:25:42;;;;;;;28.88;18.10;;;;;;;-2.35;100.00;97706.78;5068934;27;20044;-48
2021/03/03 04:28:10;;;;;;;28.80;17.88;;;;;;;-2.29;100.00;97707.47;5021386;28;20141;-53
2021/03/03 04:30:38;;;;;;;25.50;18.08;;;;;;;-2.27;100.00;97704.84;5067080;28;20051;-50
2021/03/03 04:33:09;;;;;;;25.20;17.42;;;;;;;-2.20;100.00;97709.88;5029504;28;20078;-51
2021/03/03 04:35:36;;;;;;;29.88;19.30;;;;;;;-2.13;100.00;97705.41;5067521;28;20392;-50
2021/03/03 04:38:03;;;;;;;26.00;16.60;;;;;;;-2.00;100.00;97713.69;5025024;27;20068;-53
2021/03/03 04:40:30;;;;;;;28.00;18.10;;;;;;;-1.94;100.00;97706.63;5056127;28;20075;-55
2021/03/03 04:42:57;;;;;;;28.52;18.67;;;;;;;-1.85;100.00;97710.75;5025760;28;20082;-52
2021/03/03 04:45:24;;;;;;;29.00;18.60;;;;;;;-1.89;100.00;97714.31;5063272;28;20592;-55
2021/03/03 04:47:54;;;;;;;32.65;18.20;;;;;;;-1.95;100.00;97719.63;5030051;28;20052;-56
2021/03/03 04:50:21;;;;;;;30.17;18.48;;;;;;;-1.81;100.00;97714.94;5065285;28;20090;-55
2021/03/03 04:52:48;;;;;;;27.73;18.52;;;;;;;-1.77;100.00;97710.56;5062167;28;20032;-53
2021/03/03 04:55:15;;;;;;;29.50;19.77;;;;;;;-1.76;100.00;97713.09;5043092;28;20047;-49
2021/03/03 04:57:42;;;;;;;31.70;19.05;;;;;;;-1.76;100.00;97707.91;5064133;28;20056;-49
2021/03/03 05:00:10;;;;;;;32.55;19.33;;;;;;;-1.67;100.00;97704.25;5038068;28;20072;-51
2021/03/03 05:02:38;;;;;;;29.13;19.27;;;;;;;-1.73;100.00;97704.41;5064334;28;20431;-51
2021/03/03 05:05:06;;;;;;;31.67;19.42;;;;;;;-1.75;100.00;97701.88;5023057;27;20087;-54
2021/03/03 05:07:32;;;;;;;37.05;19.52;;;;;;;-1.84;100.00;97698.66;5059636;28;20064;-53
2021/03/03 05:09:59;;;;;;;30.63;18.98;;;;;;;-1.84;100.00;97701.25;5025700;28;20450;-50
2021/03/03 05:12:27;;;;;;;29.10;18.67;;;;;;;-1.85;100.00;97700.41;5061717;28;20063;-48
2021/03/03 05:14:54;;;;;;;32.03;19.52;;;;;;;-1.87;100.00;97696.16;5026797;28;20059;-51
2021/03/03 05:17:21;;;;;;;32.15;19.25;;;;;;;-1.96;100.00;97697.25;5064852;28;20040;-51
2021/03/03 05:19:49;;;;;;;32.92;19.05;;;;;;;-1.83;100.00;97700.34;5033702;28;20041;-52
2021/03/03 05:22:16;;;;;;;28.48;19.08;;;;;;;-1.86;100.00;97693.53;5064941;28;20056;-50
2021/03/03 05:24:42;;;;;;;28.30;18.58;;;;;;;-1.75;100.00;97688.94;5029574;28;20064;-48
2021/03/03 05:27:09;;;;;;;29.80;19.25;;;;;;;-1.76;100.00;97692.41;5063607;28;20073;-49
2021/03/03 05:29:36;;;;;;;27.92;18.40;;;;;;;-1.72;100.00;97682.81;5036771;28;22412;-50
2021/03/03 05:32:03;;;;;;;33.70;19.27;;;;;;;-1.78;100.00;97683.00;5062881;28;20112;-53
2021/03/03 05:34:30;;;;;;;26.70;17.92;;;;;;;-1.83;100.00;97683.09;5035679;28;20551;-51
2021/03/03 05:36:59;;;;;;;28.30;18.38;;;;;;;-1.80;100.00;97687.34;5047488;27;20044;-50
2021/03/03 05:39:25;;;;;;;27.85;16.40;;;;;;;-1.79;100.00;97686.47;5062415;28;20052;-49
2021/03/03 05:41:52;;;;;;;26.45;17.48;;;;;;;-1.73;100.00;97687.16;5038718;28;20048;-51
2021/03/03 05:44:21;;;;;;;35.92;16.90;;;;;;;-1.63;100.00;97679.16;5062849;28;21184;-51
2021/03/03 05:46:48;;;;;;;28.60;17.55;;;;;;;-1.42;100.00;97682.94;5028772;28;20060;-52
2021/03/03 05:49:16;;;;;;;25.02;16.92;;;;;;;-1.37;100.00;97681.09;5061950;28;20090;-52
2021/03/03 05:51:43;;;;;;;22.92;15.70;;;;;;;-1.28;100.00;97681.66;5023623;28;20072;-54
2021/03/03 05:54:11;;;;;;;29.02;16.15;;;;;;;-1.12;100.00;97674.31;5066451;28;20079;-49
2021/03/03 05:56:38;;;;;;;25.25;16.02;;;;;;;-1.13;100.00;97670.03;5032012;28;20115;-51
2021/03/03 05:59:10;;;;;;;24.80;17.65;;;;;;;-1.17;100.00;97676.22;5061873;28;20380;-49
2021/03/03 06:01:37;;;;;;;28.23;18.55;;;;;;;-1.09;100.00;97681.16;5031632;27;20058;-49
2021/03/03 06:04:19;;;;;;;25.10;18.35;;;;;;;-0.83;100.00;97677.81;5066244;28;20033;-48
2021/03/03 06:06:46;;;;;;;24.95;17.92;;;;;;;-0.73;100.00;97668.88;5024683;28;21384;-50
2021/03/03 06:09:14;;;;;;;24.23;17.45;;;;;;;-0.68;100.00;97676.53;5065789;28;20110;-49
2021/03/03 06:11:41;;;;;;;22.88;16.45;;;;;;;-0.41;100.00;97675.69;5026529;28;20087;-53
2021/03/03 06:14:07;;;;;;;26.52;16.52;;;;;;;-0.37;100.00;97673.84;5066958;27;20083;-49
2021/03/03 06:16:34;;;;;;;22.08;14.73;;;;;;;-0.19;100.00;97668.09;5031884;28;20135;-52
2021/03/03 06:19:02;;;;;;;22.55;15.45;;;;;;;-0.38;100.00;97680.78;5070262;28;20059;-51
2021/03/03 06:21:30;;;;;;;24.17;14.93;;;;;;;-0.23;100.00;97671.66;5034921;28;20090;-51
2021/03/03 06:24:02;;;;;;;28.75;16.27;;;;;;;0.09;100.00;97675.81;5069685;28;20534;-50
2021/03/03 06:26:31;;;;;;;22.27;14.32;;;;;;;0.05;100.00;97670.78;5055090;28;20044;-50
2021/03/03 06:28:58;;;;;;;21.88;16.05;;;;;;;0.41;100.00;97676.47;5057341;28;20040;-51
2021/03/03 06:31:30;;;;;;;22.52;15.60;;;;;;;0.60;100.00;97669.75;5067500;28;20093;-49
2021/03/03 06:34:10;;;;;;;23.33;15.52;;;;;;;0.82;100.00;97663.81;5028765;28;20671;-46
2021/03/03 06:36:37;;;;;;;19.98;14.15;;;;;;;1.21;100.00;97663.25;5063596;28;20654;-48
2021/03/03 06:39:21;;;;;;;20.50;14.63;;;;;;;1.40;100.00;97664.25;5032258;28;20128;-47
2021/03/03 06:41:51;;;;;;;25.38;13.20;;;;;;;1.62;100.00;97662.53;5066800;28;20126;-49
2021/03/03 06:44:18;;;;;;;23.75;13.77;;;;;;;1.85;100.00;97660.75;5027250;27;20561;-48
2021/03/03 06:47:01;;;;;;;21.15;13.02;;;;;;;1.87;100.00;97653.75;5062976;28;20047;-47
2021/03/03 06:49:28;;;;;;;21.40;13.27;;;;;;;1.98;100.00;97655.91;5029898;27;20048;-47
2021/03/03 06:51:55;;;;;;;21.20;12.98;;;;;;;2.08;100.00;97649.44;5068022;28;20044;-49
2021/03/03 06:54:23;;;;;;;17.25;12.95;;;;;;;2.24;100.00;97658.31;5024740;28;20065;-47
2021/03/03 06:56:51;;;;;;;21.65;12.57;;;;;;;2.31;100.00;97661.50;5071615;28;20089;-53
2021/03/03 06:59:21;;;;;;;19.50;12.25;;;;;;;2.56;100.00;97654.31;5031317;28;20064;-47
2021/03/03 07:01:49;;;;;;;18.50;12.18;;;;;;;2.99;100.00;97647.22;5066017;28;20033;-54
2021/03/03 07:04:28;;;;;;;17.92;12.02;;;;;;;3.09;100.00;97655.47;5035493;27;20059;-52
2021/03/03 07:06:57;;;;;;;19.52;11.65;;;;;;;3.15;100.00;97649.16;5058382;28;20048;-51
2021/03/03 07:09:26;;;;;;;20.83;11.43;;;;;;;3.09;100.00;97653.72;5028585;28;20127;-52
2021/03/03 07:12:02;;;;;;;19.70;11.63;;;;;;;2.95;100.00;97660.47;5065054;28;20067;-49
2021/03/03 07:14:30;;;;;;;18.83;11.80;;;;;;;3.04;100.00;97666.13;5023660;28;20090;-50
2021/03/03 07:17:15;;;;;;;17.48;11.60;;;;;;;3.07;100.00;97668.59;5061754;28;20863;-47
2021/03/03 07:19:44;;;;;;;16.10;11.50;;;;;;;3.47;100.00;97666.75;5028383;28;20064;-53
2021/03/03 07:22:22;;;;;;;17.80;11.85;;;;;;;3.75;100.00;97668.94;5059575;28;20488;-55
2021/03/03 07:24:51;;;;;;;14.30;11.38;;;;;;;3.98;100.00;97665.22;5031534;27;20036;-51
2021/03/03 07:27:20;;;;;;;18.02;11.15;;;;;;;4.15;100.00;97658.31;5055232;28;20137;-49
2021/03/03 07:29:49;;;;;;;16.45;11.27;;;;;;;4.26;100.00;97662.09;5030991;28;20086;-53
2021/03/03 07:32:17;;;;;;;16.77;11.02;;;;;;;4.11;100.00;97675.06;5061404;28;20094;-48
2021/03/03 07:34:47;;;;;;;15.73;10.88;;;;;;;4.47;100.00;97667.16;5017467;28;20045;-54
2021/03/03 07:37:15;;;;;;;15.55;10.60;;;;;;;4.65;100.00;97668.88;5055720;27;20508;-52
2021/03/03 07:39:43;;;;;;;16.90;11.02;;;;;;;4.55;100.00;97672.88;5027350;28;20048;-50
2021/03/03 07:42:15;;;;;;;16.83;10.52;;;;;;;4.71;100.00;97671.16;5057294;28;20110;-52
2021/03/03 07:44:43;;;;;;;13.38;8.85;;;;;;;4.73;100.00;97669.31;5036337;28;20519;-54
2021/03/03 07:47:12;;;;;;;15.07;9.82;;;;;;;4.37;100.00;97661.59;5057688;28;20087;-53
2021/03/03 07:49:39;;;;;;;15.82;9.85;;;;;;;4.41;100.00;97668.34;5062631;28;20053;-53
2021/03/03 07:52:07;;;;;;;16.27;9.35;;;;;;;4.78;100.00;97671.66;5028666;28;20041;-50
2021/03/03 07:54:33;;;;;;;15.20;9.68;;;;;;;5.00;100.00;97660.97;5059433;28;20064;-51
2021/03/03 07:57:03;;;;;;;12.95;9.52;;;;;;;5.11;100.00;97656.00;5029917;28;20048;-50
2021/03/03 07:59:30;;;;;;;13.57;9.70;;;;;;;5.44;100.00;97663.81;5059140;28;20045;-49
2021/03/03 08:01:58;;;;;;;13.50;9.80;;;;;;;5.57;100.00;97652.66;5027512;28;20434;-51
2021/03/03 08:04:36;;;;;;;17.08;11.73;;;;;;;5.98;100.00;97646.94;5054048;28;20048;-48
2021/03/03 08:07:18;;;;;;;13.35;8.98;;;;;;;6.11;100.00;97646.16;5033804;27;20055;-51
2021/03/03 08:10:21;;;;;;;11.75;8.15;;;;;;;6.36;100.00;97647.34;5055230;28;20063;-51
2021/03/03 08:13:03;;;;;;;9.82;8.15;;;;;;;6.31;100.00;97654.66;4978964;28;20060;-51
2021/03/03 08:15:48;;;;;;;14.57;8.43;;;;;;;6.38;100.00;97648.97;5018951;28;20091;-50
2021/03/03 08:18:21;;;;;;;11.75;7.53;;;;;;;6.81;100.00;97656.06;5047520;28;20064;-46
2021/03/03 08:20:48;;;;;;;12.50;8.50;;;;;;;7.06;100.00;97647.56;5055406;28;20400;-55
2021/03/03 08:23:42;;;;;;;13.20;8.40;;;;;;;6.81;100.00;97649.06;5028368;28;20652;-47
2021/03/03 08:26:31;;;;;;;14.52;8.35;;;;;;;6.86;100.00;97649.63;5031781;28;20037;-49
2021/03/03 08:29:15;;;;;;;13.55;8.13;;;;;;;7.19;100.00;97640.63;5058727;28;20093;-50
2021/03/03 08:31:42;;;;;;;15.05;8.30;;;;;;;7.40;100.00;97654.22;5023942;27;20164;-49
2021/03/03 08:34:11;;;;;;;18.02;8.90;;;;;;;6.98;100.00;97647.19;5063087;28;20036;-47
2021/03/03 08:37:05;;;;;;;16.10;9.57;;;;;;;7.04;100.00;97652.91;5014072;28;20512;-51
2021/03/03 08:39:35;;;;;;;13.38;9.05;;;;;;;6.94;100.00;97649.16;5061855;28;20384;-51
2021/03/03 08:42:03;;;;;;;14.48;9.50;;;;;;;6.73;100.00;97656.53;5035072;28;30760;-47
2021/03/03 08:44:31;;;;;;;19.58;10.55;;;;;;;7.25;100.00;97648.09;5065652;28;20534;-50
2021/03/03 08:46:58;;;;;;;17.52;9.57;;;;;;;6.87;100.00;97653.06;5033551;27;20565;-48
2021/03/03 08:49:30;;;;;;;14.30;10.02;;;;;;;6.61;100.00;97655.47;5061696;28;20051;-50
2021/03/03 08:52:12;;;;;;;14.60;9.98;;;;;;;6.86;100.00;97659.25;5061071;28;20044;-52
2021/03/03 08:54:56;;;;;;;15.30;9.93;;;;;;;7.51;100.00;97645.66;5056654;28;20090;-46
2021/03/03 08:57:31;;;;;;;16.60;9.73;;;;;;;7.50;100.00;97639.56;5027999;28;20575;-48
2021/03/03 08:59:58;;;;;;;15.95;8.88;;;;;;;7.17;100.00;97645.13;5063636;28;20483;-48
2021/03/03 09:02:36;;;;;;;12.18;8.15;;;;;;;6.81;100.00;97637.69;5068020;28;20500;-47
2021/03/03 09:05:09;;;;;;;10.73;8.50;;;;;;;7.22;100.00;97636.97;5065232;28;20047;-48
2021/03/03 09:07:36;;;;;;;16.20;8.48;;;;;;;7.20;100.00;97647.56;5063054;27;20064;-46
2021/03/03 09:10:06;;;;;;;12.30;8.23;;;;;;;8.04;100.00;97634.34;5036281;28;20109;-53
2021/03/03 09:12:37;;;;;;;14.43;8.18;;;;;;;8.36;100.00;97641.88;5059851;28;20067;-51
2021/03/03 09:15:07;;;;;;;12.35;8.00;;;;;;;7.88;100.00;97635.44;5034118;28;20056;-50
2021/03/03 09:17:35;;;;;;;15.80;7.82;;;;;;;8.76;96.49;97634.00;5070903;28;20094;-53
2021/03/03 09:20:06;;;;;;;10.35;8.20;;;;;;;8.69;95.78;97640.63;5023234;28;20033;-50
2021/03/03 09:22:35;;;;;;;18.85;8.07;;;;;;;8.94;93.28;97637.97;5067158;27;20041;-48
2021/03/03 09:25:12;;;;;;;13.05;7.45;;;;;;;8.47;97.01;97636.81;5025588;27;20052;-53
2021/03/03 09:27:39;;;;;;;15.70;8.05;;;;;;;9.00;93.19;97640.19;5061904;27;20064;-54
2021/03/03 09:30:08;;;;;;;11.75;7.50;;;;;;;9.18;91.79;97635.44;5034080;28;20044;-52
2021/03/03 09:32:35;;;;;;;14.38;7.07;;;;;;;9.77;85.27;97626.88;5059115;28;20601;-47
2021/03/03 09:35:05;;;;;;;16.60;7.65;;;;;;;9.58;86.40;97634.44;5032441;28;20513;-53
2021/03/03 09:37:37;;;;;;;13.40;7.60;;;;;;;9.39;88.15;97632.25;5055948;28;20040;-47
2021/03/03 09:40:08;;;;;;;14.20;8.82;;;;;;;10.10;85.54;97622.75;5022413;28;20041;-49
2021/03/03 09:42:39;;;;;;;16.38;8.20;;;;;;;9.82;84.94;97626.56;5070598;28;20495;-49
2021/03/03 09:45:08;;;;;;;12.80;8.43;;;;;;;9.77;86.87;97621.63;5030479;27;20502;-48
2021/03/03 09:47:36;;;;;;;12.93;7.63;;;;;;;9.49;89.68;97622.75;5066254;28;20461;-51
2021/03/03 09:50:05;;;;;;;12.88;7.95;;;;;;;8.88;96.73;97627.91;5033998;28;20776;-53
2021/03/03 09:52:34;;;;;;;14.10;8.23;;;;;;;8.79;95.13;97632.00;5066932;28;20079;-53
2021/03/03 09:55:03;;;;;;;10.90;7.57;;;;;;;8.94;96.72;97624.00;5033417;28;20045;-47
2021/03/03 09:57:30;;;;;;;16.65;9.50;;;;;;;9.50;93.41;97613.94;5062648;27;20037;-54
2021/03/03 09:59:57;;;;;;;12.55;9.43;;;;;;;9.84;91.67;97622.88;5032073;28;20044;-47
2021/03/03 10:02:25;;;;;;;15.23;9.20;;;;;;;10.40;86.15;97623.16;5062806;28;20045;-53
2021/03/03 10:04:53;;;;;;;12.52;7.75;;;;;;;9.86;87.63;97628.03;5059399;28;20037;-52
2021/03/03 10:07:22;;;;;;;12.02;7.75;;;;;;;10.56;85.30;97622.81;5041421;28;20036;-53
2021/03/03 10:09:52;;;;;;;14.05;8.40;;;;;;;10.01;84.83;97618.97;5062735;28;20048;-49
2021/03/03 10:12:21;;;;;;;13.80;8.80;;;;;;;10.25;84.77;97612.84;5028311;28;20588;-51
2021/03/03 10:15:09;;;;;;;12.35;7.80;;;;;;;9.54;88.13;97612.75;5064547;28;20500;-54
2021/03/03 10:17:39;;;;;;;15.35;8.48;;;;;;;9.65;87.89;97611.97;5016724;28;20452;-53
2021/03/03 10:20:25;;;;;;;12.77;8.32;;;;;;;10.05;86.55;97619.59;5067179;28;20044;-54
2021/03/03 10:22:53;;;;;;;16.50;8.18;;;;;;;10.36;82.93;97624.34;5025877;28;20576;-55
2021/03/03 10:25:32;;;;;;;13.52;8.20;;;;;;;10.66;80.52;97615.06;5064623;27;20086;-48
2021/03/03 10:28:19;;;;;;;12.75;7.95;;;;;;;10.73;82.26;97618.06;5067284;27;20045;-54
2021/03/03 10:30:48;;;;;;;13.18;8.32;;;;;;;11.44;76.63;97611.63;5062554;28;20127;-48
2021/03/03 10:33:25;;;;;;;13.45;7.63;;;;;;;11.87;71.05;97603.78;5036679;28;20111;-48
2021/03/03 10:35:54;;;;;;;18.38;8.38;;;;;;;10.73;77.47;97613.63;5054073;28;20044;-55
2021/03/03 10:38:23;;;;;;;14.80;8.27;;;;;;;11.07;78.72;97606.59;5025448;28;20033;-50
2021/03/03 10:40:51;;;;;;;18.33;8.80;;;;;;;10.91;75.80;97606.13;5065406;27;20068;-52
2021/03/03 10:43:20;;;;;;;17.17;8.70;;;;;;;10.67;79.95;97606.19;5026895;28;20068;-49
2021/03/03 10:45:48;;;;;;;13.55;8.63;;;;;;;11.51;74.79;97599.63;5066276;28;20123;-50
2021/03/03 10:48:29;;;;;;;15.48;8.55;;;;;;;11.34;72.94;97600.94;5025870;27;20128;-53
2021/03/03 10:50:59;;;;;;;14.90;8.93;;;;;;;11.94;70.08;97587.41;5062927;28;20045;-51
2021/03/03 10:53:43;;;;;;;14.53;8.53;;;;;;;11.36;74.03;97590.28;5044326;27;20067;-49
2021/03/03 10:56:21;;;;;;;14.82;8.85;;;;;;;12.19;68.22;97591.53;5065581;28;20337;-54
2021/03/03 10:58:48;;;;;;;13.60;8.65;;;;;;;12.17;69.75;97586.34;5034639;28;20491;-48
2021/03/03 11:01:15;;;;;;;16.70;9.75;;;;;;;12.78;63.64;97599.75;5065974;28;20580;-50
2021/03/03 11:03:51;;;;;;;14.20;9.13;;;;;;;11.76;67.32;97600.28;5027179;28;20040;-51
2021/03/03 11:06:17;;;;;;;12.77;9.48;;;;;;;12.46;66.40;97589.25;5072293;28;20090;-54
2021/03/03 11:08:44;;;;;;;15.18;9.32;;;;;;;12.85;61.87;97594.78;5032526;28;20068;-52
2021/03/03 11:11:12;;;;;;;16.60;8.80;;;;;;;12.34;64.06;97592.91;5067138;28;20507;-50
2021/03/03 11:13:39;;;;;;;12.88;8.60;;;;;;;12.55;66.94;97592.91;5030549;28;20076;-56
2021/03/03 11:16:06;;;;;;;15.13;9.13;;;;;;;12.71;63.96;97589.81;5066733;28;20087;-53
2021/03/03 11:18:38;;;;;;;12.25;8.82;;;;;;;12.95;62.02;97586.88;5036449;28;20076;-50
2021/03/03 11:21:06;;;;;;;11.80;9.27;;;;;;;13.15;61.62;97590.47;5065477;27;20432;-52
2021/03/03 11:23:33;;;;;;;16.65;9.00;;;;;;;12.57;61.55;97583.03;5032715;28;20047;-49
2021/03/03 11:26:01;;;;;;;17.83;10.20;;;;;;;13.21;58.05;97571.38;5065509;28;20040;-53
2021/03/03 11:28:28;;;;;;;16.13;9.63;;;;;;;13.58;55.47;97573.47;5028490;28;23020;-50